Time;durP1;ratioP1;P1;durP2;ratioP2;P2;SDS_P1;SDS_P2;PMS_P1;PMS_P2;Temp;Humidity;BMP_temperature;BMP_pressure;BME280_temperature;BME280_humidity;BME280_pressure;Samples;Min_cycle;Max_cycle;Signal;HPM_P1;HPM_P2
2023/07/24 00:01:58;;;;;;;13.23;8.57;;;;;;;21.02;85.51;96643.41;5092841;28;20130;-67
2023/07/24 00:04:25;;;;;;;12.00;7.32;;;;;;;21.12;85.68;96646.19;5094322;28;20055;-65
2023/07/24 00:06:54;;;;;;;13.13;8.40;;;;;;;21.18;85.65;96651.00;5096837;28;20040;-67
2023/07/24 00:09:21;;;;;;;9.48;7.97;;;;;;;21.30;85.36;96645.66;5096457;28;20044;-66
2023/07/24 00:11:48;;;;;;;6.72;6.05;;;;;;;21.36;82.99;96647.84;5096724;28;20051;-66
2023/07/24 00:14:16;;;;;;;8.23;6.88;;;;;;;21.43;82.22;96650.88;5096444;28;20090;-67
2023/07/24 00:16:43;;;;;;;10.30;7.95;;;;;;;21.40;82.05;96649.28;5096497;28;20054;-65
2023/07/24 00:19:10;;;;;;;9.20;7.28;;;;;;;21.36;82.68;96642.53;5096690;28;20562;-66
2023/07/24 00:21:37;;;;;;;16.65;8.88;;;;;;;21.34;82.97;96641.78;5096385;28;20052;-66
2023/07/24 00:24:07;;;;;;;13.75;10.13;;;;;;;21.30;85.14;96645.66;5096405;28;20409;-66
2023/07/24 00:26:33;;;;;;;10.10;8.18;;;;;;;21.36;85.55;96642.53;5096346;28;20044;-68
2023/07/24 00:29:00;;;;;;;11.25;8.00;;;;;;;21.41;84.47;96640.34;5096160;28;20055;-65
2023/07/24 00:31:27;;;;;;;9.52;7.18;;;;;;;21.42;83.38;96641.16;5096559;28;20130;-64
2023/07/24 00:33:54;;;;;;;10.15;9.10;;;;;;;21.41;83.31;96644.81;5095981;28;20087;-67
2023/07/24 00:36:22;;;;;;;10.05;7.72;;;;;;;21.42;82.94;96644.69;5096035;28;20067;-66
2023/07/24 00:38:49;;;;;;;10.23;8.25;;;;;;;21.45;83.45;96646.25;5095999;28;20047;-66
2023/07/24 00:41:17;;;;;;;14.65;9.40;;;;;;;21.48;83.42;96650.47;5096113;28;20044;-65
2023/07/24 00:43:44;;;;;;;13.27;9.63;;;;;;;21.51;84.28;96643.09;5096001;28;20049;-66
2023/07/24 00:46:12;;;;;;;10.32;8.15;;;;;;;21.57;83.38;96639.94;5095956;28;20048;-67
2023/07/24 00:48:39;;;;;;;11.20;8.88;;;;;;;21.64;83.23;96642.09;5095918;28;20095;-67
2023/07/24 00:51:07;;;;;;;10.60;8.48;;;;;;;21.69;82.95;96653.19;5095818;28;20059;-65
2023/07/24 00:53:34;;;;;;;9.32;7.93;;;;;;;21.68;82.23;96651.53;5096132;28;20044;-67
2023/07/24 00:56:01;;;;;;;9.77;8.00;;;;;;;21.67;82.71;96642.69;5095914;28;20090;-65
2023/07/24 00:58:29;;;;;;;10.90;8.63;;;;;;;21.66;82.84;96649.00;5095690;28;20052;-66
2023/07/24 01:00:56;;;;;;;8.60;7.70;;;;;;;21.65;82.09;96646.44;5095638;28;20083;-67
2023/07/24 01:03:32;;;;;;;11.60;8.55;;;;;;;21.64;82.73;96650.91;5095317;28;20055;-65
2023/07/24 01:06:00;;;;;;;10.60;8.90;;;;;;;21.65;82.19;96646.44;5095471;28;20083;-65
2023/07/24 01:08:27;;;;;;;10.63;8.95;;;;;;;21.63;82.43;96645.72;5095530;28;20484;-65
2023/07/24 01:10:54;;;;;;;9.95;7.95;;;;;;;21.59;81.74;96634.50;5095556;28;20097;-66
2023/07/24 01:13:25;;;;;;;13.30;10.45;;;;;;;21.60;82.71;96644.16;5095371;28;20476;-65
2023/07/24 01:15:56;;;;;;;;;;;;;;;21.55;82.65;96638.38;5095074;28;20417;-67
2023/07/24 01:18:25;;;;;;;8.18;7.22;;;;;;;21.46;81.85;96642.59;5095303;28;20006;-65
2023/07/24 01:20:56;;;;;;;10.75;9.65;;;;;;;21.41;82.31;96648.31;5095334;28;20044;-65
2023/07/24 01:23:38;;;;;;;10.98;8.98;;;;;;;21.38;82.56;96639.75;5095117;28;20098;-67
2023/07/24 01:26:08;;;;;;;11.23;9.40;;;;;;;21.36;81.79;96637.19;5095106;28;20514;-64
2023/07/24 01:28:35;;;;;;;10.18;9.05;;;;;;;21.35;80.70;96635.50;5095081;28;20079;-65
2023/07/24 01:31:02;;;;;;;11.77;8.18;;;;;;;21.30;80.33;96643.88;5095133;28;20051;-66
2023/07/24 01:33:31;;;;;;;8.50;7.65;;;;;;;21.26;79.84;96641.56;5094942;28;20446;-64
2023/07/24 01:36:00;;;;;;;9.32;8.35;;;;;;;21.16;80.95;96647.63;5094808;28;20055;-67
2023/07/24 01:38:28;;;;;;;10.75;8.57;;;;;;;21.15;80.23;96637.09;5094817;28;20093;-64
2023/07/24 01:40:56;;;;;;;15.63;8.25;;;;;;;21.11;80.16;96643.63;5094809;28;20106;-67
2023/07/24 01:43:27;;;;;;;11.10;8.43;;;;;;;21.07;80.09;96648.38;5095017;28;20105;-66
2023/07/24 01:45:54;;;;;;;13.38;8.32;;;;;;;20.98;79.40;96641.94;5094736;28;20047;-65
2023/07/24 01:48:21;;;;;;;10.65;8.32;;;;;;;20.96;79.85;96639.41;5094742;28;20052;-67
2023/07/24 01:50:48;;;;;;;9.63;8.45;;;;;;;20.92;79.34;96637.97;5094799;28;20130;-67
2023/07/24 01:53:15;;;;;;;10.68;8.73;;;;;;;20.89;79.28;96634.69;5094717;28;20059;-65
2023/07/24 01:55:42;;;;;;;8.95;8.05;;;;;;;20.88;79.43;96632.97;5094409;28;20485;-66
2023/07/24 01:58:09;;;;;;;11.55;8.93;;;;;;;20.87;80.16;96637.47;5094697;28;20047;-66
2023/07/24 02:00:37;;;;;;;9.10;8.20;;;;;;;20.80;79.05;96638.91;5094463;28;20097;-66
2023/07/24 02:03:05;;;;;;;11.15;8.65;;;;;;;20.77;79.44;96641.81;5094407;28;20428;-64
2023/07/24 02:05:32;;;;;;;9.38;8.40;;;;;;;20.73;79.51;96641.19;5094276;28;20044;-67
2023/07/24 02:07:59;;;;;;;9.15;8.13;;;;;;;20.69;79.77;96639.75;5094423;28;20048;-65
2023/07/24 02:10:26;;;;;;;10.38;8.85;;;;;;;20.69;79.56;96640.59;5094400;28;20142;-67
2023/07/24 02:12:53;;;;;;;12.40;8.52;;;;;;;20.74;80.09;96636.72;5094368;28;20451;-66
2023/07/24 02:15:20;;;;;;;10.38;8.70;;;;;;;20.74;80.82;96629.59;5094343;28;20121;-65
2023/07/24 02:17:49;;;;;;;11.63;9.85;;;;;;;20.82;82.73;96631.66;5094196;28;20055;-65
2023/07/24 02:20:16;;;;;;;13.02;9.43;;;;;;;20.87;83.40;96628.63;5094063;28;20083;-65
2023/07/24 02:22:43;;;;;;;13.18;7.90;;;;;;;20.87;83.22;96637.47;5094097;28;20087;-66
2023/07/24 02:25:10;;;;;;;14.90;8.73;;;;;;;20.88;82.26;96636.47;5094063;28;20147;-65
2023/07/24 02:27:37;;;;;;;8.70;7.80;;;;;;;20.90;81.28;96637.25;5093984;28;20565;-66
2023/07/24 02:30:05;;;;;;;11.27;8.50;;;;;;;20.81;80.81;96630.81;5094190;28;20131;-68
2023/07/24 02:32:32;;;;;;;9.73;8.82;;;;;;;20.82;82.15;96635.16;5093859;28;20066;-65
2023/07/24 02:35:01;;;;;;;9.52;8.30;;;;;;;20.81;82.20;96629.97;5093734;28;20051;-65
2023/07/24 02:37:28;;;;;;;10.05;8.93;;;;;;;20.83;82.25;96628.03;5093976;28;20055;-67
2023/07/24 02:39:55;;;;;;;10.65;8.82;;;;;;;20.84;82.65;96633.22;5093827;28;20044;-67
2023/07/24 02:42:23;;;;;;;15.32;10.40;;;;;;;20.82;83.52;96629.84;5093750;28;20059;-65
2023/07/24 02:44:50;;;;;;;17.08;12.23;;;;;;;20.80;84.73;96631.75;5093655;28;20116;-65
2023/07/24 02:47:17;;;;;;;13.73;11.20;;;;;;;20.80;84.73;96630.94;5093642;28;20059;-64
2023/07/24 02:49:44;;;;;;;14.68;11.38;;;;;;;20.80;86.05;96639.75;5093574;28;20044;-67
2023/07/24 02:52:13;;;;;;;16.77;10.48;;;;;;;20.86;86.16;96638.41;5093505;28;20048;-67
2023/07/24 02:54:40;;;;;;;9.82;8.63;;;;;;;20.88;85.72;96640.94;5093443;28;20040;-66
2023/07/24 02:57:07;;;;;;;12.43;11.10;;;;;;;20.90;86.38;96637.25;5093338;28;20052;-65
2023/07/24 02:59:35;;;;;;;12.90;10.77;;;;;;;20.91;85.85;96633.63;5093498;28;20044;-65
2023/07/24 03:02:02;;;;;;;16.15;12.45;;;;;;;20.94;86.81;96627.22;5093257;28;20058;-64
2023/07/24 03:04:30;;;;;;;13.23;11.90;;;;;;;21.01;86.47;96628.41;5093454;28;20113;-66
2023/07/24 03:06:58;;;;;;;12.98;11.68;;;;;;;21.00;86.61;96636.50;5093570;28;20504;-66
2023/07/24 03:09:28;;;;;;;17.35;12.93;;;;;;;21.02;86.47;96635.44;5093354;28;20062;-67
2023/07/24 03:11:55;;;;;;;16.88;13.70;;;;;;;20.98;87.13;96643.78;5093262;28;20113;-67
2023/07/24 03:14:22;;;;;;;15.00;12.73;;;;;;;20.96;87.01;96643.91;5093361;28;20048;-66
2023/07/24 03:16:49;;;;;;;16.88;13.00;;;;;;;20.99;87.44;96642.78;5093235;28;20044;-66
2023/07/24 03:19:17;;;;;;;16.73;13.18;;;;;;;21.00;87.32;96639.16;5093230;28;20048;-66
2023/07/24 03:21:44;;;;;;;18.90;13.40;;;;;;;20.94;87.32;96632.53;5093261;28;20054;-65
2023/07/24 03:24:11;;;;;;;15.35;12.77;;;;;;;21.01;87.44;96643.53;5093314;28;20127;-66
2023/07/24 03:26:40;;;;;;;15.52;12.57;;;;;;;21.01;87.27;96644.34;5093102;28;20078;-67
2023/07/24 03:29:07;;;;;;;12.77;11.25;;;;;;;21.02;87.34;96645.22;5093081;28;20052;-67
2023/07/24 03:31:34;;;;;;;14.45;12.25;;;;;;;21.02;87.05;96648.72;5093172;28;20098;-64
2023/07/24 03:34:01;;;;;;;12.93;11.63;;;;;;;21.07;86.00;96651.84;5093222;28;20071;-66
2023/07/24 03:36:28;;;;;;;15.73;11.93;;;;;;;21.11;86.21;96651.63;5092908;28;20054;-65
2023/07/24 03:38:55;;;;;;;15.43;11.35;;;;;;;21.04;85.79;96644.13;5093893;28;20056;-67
2023/07/24 03:41:23;;;;;;;13.43;10.93;;;;;;;21.06;85.40;96644.00;5097359;28;20495;-67
2023/07/24 03:43:52;;;;;;;11.63;10.55;;;;;;;21.01;85.78;96640.88;5097130;28;20059;-67
2023/07/24 03:46:19;;;;;;;11.52;9.82;;;;;;;21.01;85.46;96646.19;5097174;28;20412;-67
2023/07/24 03:48:46;;;;;;;12.80;9.82;;;;;;;21.06;84.26;96647.50;5096947;28;20039;-66
2023/07/24 03:51:13;;;;;;;9.82;8.93;;;;;;;21.15;83.53;96648.59;5097084;28;20040;-67
2023/07/24 03:53:40;;;;;;;9.65;8.65;;;;;;;21.20;83.43;96650.88;5096819;28;20048;-65
2023/07/24 03:56:07;;;;;;;10.30;9.18;;;;;;;21.24;83.21;96655.00;5096919;28;20088;-66
2023/07/24 03:58:34;;;;;;;9.38;8.20;;;;;;;21.25;82.61;96653.19;5096837;28;20051;-65
2023/07/24 04:01:03;;;;;;;10.02;8.88;;;;;;;21.31;82.02;96650.88;5096809;28;20478;-65
2023/07/24 04:03:30;;;;;;;10.82;9.73;;;;;;;21.37;82.23;96646.88;5096505;28;20087;-66
2023/07/24 04:05:57;;;;;;;12.75;10.20;;;;;;;21.40;82.55;96646.63;5096901;28;20062;-67
2023/07/24 04:08:23;;;;;;;13.48;9.95;;;;;;;21.39;83.23;96641.41;5096564;28;20493;-65
2023/07/24 04:10:50;;;;;;;16.73;9.90;;;;;;;21.26;82.79;96639.75;5096426;28;20040;-64
2023/07/24 04:13:17;;;;;;;22.08;10.50;;;;;;;21.24;83.72;96641.69;5096597;28;20490;-66
2023/07/24 04:15:45;;;;;;;18.13;10.05;;;;;;;21.24;83.70;96640.84;5096441;28;20086;-66
2023/07/24 04:18:13;;;;;;;17.33;10.38;;;;;;;21.21;84.14;96642.78;5096445;28;20467;-67
2023/07/24 04:20:40;;;;;;;16.42;10.95;;;;;;;21.20;83.39;96640.25;5096387;28;20098;-67
2023/07/24 04:23:08;;;;;;;16.70;9.98;;;;;;;21.22;83.96;96640.97;5096352;28;20044;-66
2023/07/24 04:25:35;;;;;;;13.15;10.63;;;;;;;21.24;84.09;96644.34;5096358;28;20075;-66
2023/07/24 04:28:02;;;;;;;15.65;10.40;;;;;;;21.31;84.06;96650.03;5096352;28;20123;-65
2023/07/24 04:30:29;;;;;;;14.23;9.38;;;;;;;21.39;83.95;96641.41;5096190;28;20044;-66
2023/07/24 04:32:56;;;;;;;15.50;9.40;;;;;;;21.46;84.15;96642.59;5096123;28;20050;-64
2023/07/24 04:35:25;;;;;;;23.63;9.80;;;;;;;21.49;83.61;96641.53;5096098;28;20489;-65
2023/07/24 04:37:52;;;;;;;60.03;10.07;;;;;;;21.52;83.30;96635.97;5096159;28;20048;-67
2023/07/24 04:40:19;;;;;;;11.98;9.43;;;;;;;21.54;83.62;96634.00;5096025;28;20050;-67
2023/07/24 04:42:46;;;;;;;10.65;9.65;;;;;;;21.60;83.46;96636.19;5095998;28;20086;-66
2023/07/24 04:45:13;;;;;;;11.38;9.82;;;;;;;21.64;84.08;96640.28;5095946;28;20051;-65
2023/07/24 04:47:40;;;;;;;10.95;9.85;;;;;;;21.69;82.87;96638.09;5095942;28;20131;-66
2023/07/24 04:50:07;;;;;;;11.07;9.80;;;;;;;21.78;83.00;96638.31;5095290;28;20048;-65
2023/07/24 04:52:36;;;;;;;11.18;9.57;;;;;;;21.84;83.13;96637.81;5095483;28;20082;-65
2023/07/24 04:55:03;;;;;;;10.40;9.40;;;;;;;21.94;83.19;96648.53;5095680;28;20135;-67
2023/07/24 04:57:30;;;;;;;12.48;9.85;;;;;;;21.99;82.25;96641.03;5095674;28;20105;-66
2023/07/24 04:59:57;;;;;;;10.40;9.40;;;;;;;22.02;81.57;96646.09;5095645;28;20048;-67
2023/07/24 05:02:24;;;;;;;10.77;9.20;;;;;;;22.04;81.29;96651.31;5095451;28;20044;-67
2023/07/24 05:04:52;;;;;;;9.55;8.55;;;;;;;22.07;81.33;96656.38;5095519;28;20044;-67
2023/07/24 05:07:19;;;;;;;9.48;8.57;;;;;;;22.01;81.07;96652.41;5095674;28;20173;-67
2023/07/24 05:09:47;;;;;;;11.25;8.60;;;;;;;22.06;80.58;96660.84;5095666;28;20078;-64
2023/07/24 05:12:14;;;;;;;11.93;9.40;;;;;;;22.05;80.32;96661.84;5095463;28;20478;-66
2023/07/24 05:14:41;;;;;;;10.93;9.20;;;;;;;22.03;80.44;96665.59;5095479;28;20072;-65
2023/07/24 05:17:08;;;;;;;18.80;9.57;;;;;;;22.04;79.63;96664.63;5095268;28;20055;-65
2023/07/24 05:19:36;;;;;;;14.77;10.75;;;;;;;21.98;79.51;96665.13;5095213;28;20097;-66
2023/07/24 05:22:03;;;;;;;11.52;10.43;;;;;;;21.94;80.15;96665.38;5095183;28;20052;-67
2023/07/24 05:24:30;;;;;;;9.63;8.68;;;;;;;21.95;79.91;96661.72;5095147;28;20052;-66
2023/07/24 05:26:59;;;;;;;11.50;10.13;;;;;;;22.04;79.19;96672.59;5095183;28;20040;-64
2023/07/24 05:29:26;;;;;;;9.70;8.75;;;;;;;22.14;79.58;96670.88;5095343;28;20443;-67
2023/07/24 05:31:53;;;;;;;10.00;9.05;;;;;;;22.19;79.53;96670.50;5095160;28;20059;-66
2023/07/24 05:34:20;;;;;;;9.90;8.90;;;;;;;22.35;78.04;96664.72;5095281;28;20048;-67
2023/07/24 05:36:47;;;;;;;8.93;8.02;;;;;;;22.59;77.56;96669.81;5095035;28;20090;-66
2023/07/24 05:39:14;;;;;;;9.75;8.85;;;;;;;22.78;75.75;96675.41;5095118;28;20497;-66
2023/07/24 05:41:41;;;;;;;9.32;8.43;;;;;;;22.99;75.20;96670.00;5094837;28;20489;-66
2023/07/24 05:44:09;;;;;;;10.57;9.45;;;;;;;23.27;74.03;96674.75;5095065;28;20067;-64
2023/07/24 05:46:37;;;;;;;10.70;8.23;;;;;;;23.42;72.88;96684.09;5094727;28;20048;-64
2023/07/24 05:49:04;;;;;;;8.20;7.40;;;;;;;23.88;71.95;96677.44;5094987;28;20079;-65
2023/07/24 05:51:31;;;;;;;8.23;6.97;;;;;;;24.48;69.69;96674.66;5094631;28;20048;-66
2023/07/24 05:53:58;;;;;;;6.95;6.22;;;;;;;25.07;67.21;96671.00;5094719;28;20101;-66
2023/07/24 05:56:25;;;;;;;7.65;6.25;;;;;;;25.67;64.14;96676.13;5094494;28;20052;-65
2023/07/24 05:58:52;;;;;;;7.55;5.85;;;;;;;26.21;61.93;96672.59;5094584;28;20048;-65
2023/07/24 06:01:20;;;;;;;6.70;6.03;;;;;;;26.82;60.11;96663.88;5094247;28;20051;-64
2023/07/24 06:03:47;;;;;;;5.72;5.18;;;;;;;27.42;58.66;96664.03;5094217;28;20493;-66
2023/07/24 06:06:14;;;;;;;5.97;5.22;;;;;;;28.01;56.50;96673.94;5094483;28;20083;-67
2023/07/24 06:08:41;;;;;;;5.22;4.72;;;;;;;28.53;54.37;96679.19;5094453;28;20059;-67
2023/07/24 06:11:08;;;;;;;5.60;5.10;;;;;;;29.03;54.10;96679.13;5094327;28;20098;-66
2023/07/24 06:13:35;;;;;;;5.72;5.10;;;;;;;29.49;52.34;96676.63;5094342;28;20048;-66
2023/07/24 06:16:02;;;;;;;6.03;5.40;;;;;;;29.86;51.49;96668.03;5094237;28;20094;-66
2023/07/24 06:18:31;;;;;;;7.40;5.22;;;;;;;30.15;51.10;96661.09;5094237;28;20040;-66
2023/07/24 06:20:58;;;;;;;6.30;5.70;;;;;;;30.45;49.57;96661.22;5094091;28;20075;-65
2023/07/24 06:23:25;;;;;;;9.52;5.90;;;;;;;30.80;47.91;96663.47;5093943;28;20093;-67
2023/07/24 06:25:53;;;;;;;6.28;5.20;;;;;;;31.17;47.23;96668.13;5093914;28;20044;-67
2023/07/24 06:28:20;;;;;;;6.00;5.32;;;;;;;31.50;45.55;96659.63;5093941;28;20448;-66
2023/07/24 06:30:47;;;;;;;11.38;5.32;;;;;;;31.67;45.84;96654.88;5094035;28;20044;-67
2023/07/24 06:33:14;;;;;;;5.93;4.85;;;;;;;31.96;45.39;96660.41;5093807;28;20127;-65
2023/07/24 06:35:43;;;;;;;7.32;4.63;;;;;;;32.15;44.84;96657.03;5093793;28;20040;-67
2023/07/24 06:38:10;;;;;;;4.95;4.30;;;;;;;32.39;44.39;96657.66;5093745;28;20048;-66
2023/07/24 06:40:37;;;;;;;5.55;4.57;;;;;;;32.68;44.15;96665.84;5093677;28;20127;-66
2023/07/24 06:43:04;;;;;;;6.45;4.80;;;;;;;33.01;43.38;96667.94;5093665;28;20497;-65
2023/07/24 06:45:31;;;;;;;7.80;4.75;;;;;;;33.15;42.25;96668.91;5093778;28;20048;-66
2023/07/24 06:47:59;;;;;;;4.78;4.15;;;;;;;33.31;42.65;96668.78;5093553;28;20052;-66
2023/07/24 06:50:26;;;;;;;7.13;5.10;;;;;;;33.46;40.90;96672.16;5093601;28;20136;-66
2023/07/24 06:52:55;;;;;;;6.30;4.70;;;;;;;33.58;40.09;96664.28;5093811;28;20091;-65
2023/07/24 06:55:22;;;;;;;5.05;4.55;;;;;;;33.75;40.69;96662.09;5093640;28;20448;-66
2023/07/24 06:57:49;;;;;;;7.40;4.35;;;;;;;33.43;40.93;96667.16;5093481;28;20481;-66
2023/07/24 07:00:16;;;;;;;10.85;4.75;;;;;;;33.57;40.50;96653.66;5093488;28;20139;-66
2023/07/24 07:02:43;;;;;;;5.57;4.20;;;;;;;33.68;39.00;96660.41;5093143;28;20139;-66
2023/07/24 07:05:11;;;;;;;5.43;4.20;;;;;;;33.82;39.63;96647.69;5093452;28;20044;-66
2023/07/24 07:07:39;;;;;;;5.30;4.35;;;;;;;34.03;39.61;96644.84;5093381;28;20490;-65
2023/07/24 07:10:08;;;;;;;5.68;4.97;;;;;;;33.75;39.03;96650.41;5093281;28;20040;-65
2023/07/24 07:12:35;;;;;;;5.20;4.70;;;;;;;33.81;39.12;96646.88;5093454;28;20044;-66
2023/07/24 07:15:03;;;;;;;6.10;4.38;;;;;;;33.91;38.62;96650.03;5092556;28;20055;-67
2023/07/24 07:17:30;;;;;;;7.50;4.75;;;;;;;34.02;38.38;96648.63;5093152;28;20409;-65
2023/07/24 07:19:57;;;;;;;8.70;5.15;;;;;;;34.02;39.42;96648.63;5093395;28;20052;-66
2023/07/24 07:22:24;;;;;;;8.05;4.90;;;;;;;34.00;38.93;96642.53;5093393;28;20044;-66
2023/07/24 07:24:51;;;;;;;7.32;4.90;;;;;;;34.08;38.01;96638.81;5093134;28;20047;-66
2023/07/24 07:27:20;;;;;;;6.05;5.40;;;;;;;33.85;37.27;96631.88;5093177;28;20044;-66
2023/07/24 07:29:47;;;;;;;6.15;5.10;;;;;;;33.78;35.11;96626.44;5093009;28;20044;-66
2023/07/24 07:32:14;;;;;;;6.97;4.72;;;;;;;33.98;35.06;96622.09;5093100;28;20425;-66
2023/07/24 07:34:41;;;;;;;6.65;5.47;;;;;;;34.34;35.25;96618.19;5092988;28;20047;-66
2023/07/24 07:37:08;;;;;;;7.25;5.00;;;;;;;34.51;36.02;96626.75;5092962;28;20044;-66
2023/07/24 07:39:36;;;;;;;7.53;4.82;;;;;;;34.74;36.56;96630.94;5092901;28;20044;-66
2023/07/24 07:42:03;;;;;;;6.75;5.32;;;;;;;34.98;35.54;96623.16;5092918;28;20075;-66
2023/07/24 07:44:31;;;;;;;6.10;4.85;;;;;;;34.77;35.62;96633.22;5093296;28;20040;-66
2023/07/24 07:46:58;;;;;;;5.93;5.15;;;;;;;34.87;35.67;96632.78;5093091;28;20386;-66
2023/07/24 07:49:25;;;;;;;9.05;5.50;;;;;;;34.86;36.33;96625.69;5093095;28;20130;-66
2023/07/24 07:51:53;;;;;;;8.00;5.57;;;;;;;34.47;36.20;96627.38;5092879;28;20044;-66
2023/07/24 07:54:20;;;;;;;8.10;5.45;;;;;;;34.40;36.34;96619.25;5092896;28;20101;-66
2023/07/24 07:56:46;;;;;;;7.47;5.25;;;;;;;34.56;36.04;96631.53;5092873;28;20052;-66
2023/07/24 07:59:13;;;;;;;8.02;5.18;;;;;;;34.73;35.83;96631.97;5092904;28;20048;-66
2023/07/24 08:01:42;;;;;;;10.80;5.80;;;;;;;34.91;35.53;96633.19;5092837;28;20109;-66
2023/07/24 08:04:10;;;;;;;12.50;6.18;;;;;;;34.11;36.52;96626.69;5092525;28;20089;-66
2023/07/24 08:06:37;;;;;;;6.40;5.50;;;;;;;33.91;38.31;96620.22;5092826;28;20101;-66
2023/07/24 08:09:04;;;;;;;8.93;5.85;;;;;;;34.16;39.02;96619.63;5092963;28;20113;-67
2023/07/24 08:11:31;;;;;;;6.18;5.55;;;;;;;34.32;37.32;96623.00;5092849;28;20387;-67
2023/07/24 08:13:58;;;;;;;8.00;5.97;;;;;;;34.25;37.09;96620.25;5092692;28;20044;-66
2023/07/24 08:16:25;;;;;;;7.10;6.40;;;;;;;33.40;38.88;96622.31;5092535;28;20056;-67
2023/07/24 08:18:54;;;;;;;9.30;6.40;;;;;;;33.51;37.86;96618.22;5092763;28;20409;-66
2023/07/24 08:21:21;;;;;;;7.45;6.15;;;;;;;33.35;36.28;96623.97;5092838;28;20478;-67
2023/07/24 08:23:48;;;;;;;10.32;7.13;;;;;;;32.89;37.89;96621.63;5092626;28;20051;-67
2023/07/24 08:26:15;;;;;;;9.65;6.07;;;;;;;32.42;39.57;96618.59;5095506;28;20048;-66
2023/07/24 08:28:43;;;;;;;10.35;6.53;;;;;;;32.66;39.25;96613.78;5096223;28;20055;-66
2023/07/24 08:31:11;;;;;;;10.30;5.95;;;;;;;33.01;38.59;96613.78;5096199;28;20040;-66
2023/07/24 08:33:38;;;;;;;10.02;5.88;;;;;;;33.45;38.64;96600.03;5096135;28;20121;-66
2023/07/24 08:36:08;;;;;;;8.20;5.78;;;;;;;33.99;36.68;96600.19;5096083;28;20131;-66
2023/07/24 08:38:36;;;;;;;7.25;5.75;;;;;;;34.27;35.89;96599.19;5096164;28;20105;-67
2023/07/24 08:41:05;;;;;;;8.63;6.03;;;;;;;34.48;35.31;96601.88;5096313;28;20056;-67
2023/07/24 08:43:34;;;;;;;6.72;5.82;;;;;;;34.51;34.41;96599.59;5096087;28;20083;-66
2023/07/24 08:46:02;;;;;;;6.75;5.13;;;;;;;34.76;33.92;96590.00;5095927;28;20123;-66
2023/07/24 08:48:35;;;;;;;6.80;5.90;;;;;;;34.92;34.40;96592.22;5095969;28;20105;-67
2023/07/24 08:51:03;;;;;;;6.40;5.30;;;;;;;35.04;34.43;96595.13;5095917;28;20131;-67
2023/07/24 08:53:32;;;;;;;6.97;6.22;;;;;;;35.19;33.68;96595.94;5095857;28;20052;-66
2023/07/24 08:56:01;;;;;;;7.35;5.70;;;;;;;35.11;34.95;96595.09;5095749;28;20127;-66
2023/07/24 08:58:29;;;;;;;11.98;6.40;;;;;;;34.95;35.39;96596.41;5095723;28;20060;-66
2023/07/24 09:00:57;;;;;;;9.90;6.30;;;;;;;34.96;35.81;96603.50;5095649;28;20109;-66
2023/07/24 09:03:25;;;;;;;9.82;6.10;;;;;;;35.16;34.76;96594.47;5095396;28;20091;-66
2023/07/24 09:05:52;;;;;;;7.47;6.22;;;;;;;35.24;35.47;96594.25;5095507;28;20044;-66
2023/07/24 09:08:31;;;;;;;10.07;6.18;;;;;;;35.15;35.80;96599.06;5095459;28;20079;-66
2023/07/24 09:10:58;;;;;;;7.40;5.90;;;;;;;35.21;34.18;96600.09;5095472;28;20512;-67
2023/07/24 09:13:26;;;;;;;7.00;5.85;;;;;;;35.06;33.56;96591.38;5095747;28;20040;-66
2023/07/24 09:15:53;;;;;;;16.08;5.78;;;;;;;35.13;33.72;96592.19;5095381;28;20044;-66
2023/07/24 09:18:21;;;;;;;7.28;6.05;;;;;;;35.14;32.70;96593.84;5095256;28;20083;-66
2023/07/24 09:20:48;;;;;;;7.40;5.78;;;;;;;34.46;31.20;96595.84;5095396;28;20436;-66
2023/07/24 09:23:16;;;;;;;6.72;4.68;;;;;;;34.02;32.54;96591.66;5095498;28;20051;-65
2023/07/24 09:25:46;;;;;;;5.60;5.07;;;;;;;34.19;32.91;96577.69;5095310;28;20485;-65
2023/07/24 09:28:15;;;;;;;6.72;5.93;;;;;;;34.36;32.19;96575.41;5095226;28;20151;-65
2023/07/24 09:30:43;;;;;;;8.88;5.38;;;;;;;34.11;31.60;96581.44;5095414;28;20048;-66
2023/07/24 09:33:11;;;;;;;7.78;5.28;;;;;;;34.10;33.37;96579.75;5095200;28;20157;-66
2023/07/24 09:35:38;;;;;;;6.40;5.47;;;;;;;34.03;33.62;96577.03;5095381;28;20493;-67
2023/07/24 09:38:07;;;;;;;5.95;5.38;;;;;;;34.09;32.66;96569.09;5094357;28;20093;-66
2023/07/24 09:40:42;;;;;;;5.30;4.80;;;;;;;34.19;32.21;96568.72;5095199;28;20052;-66
2023/07/24 09:43:19;;;;;;;6.25;5.40;;;;;;;34.26;31.89;96567.69;5095238;28;20138;-66
2023/07/24 09:45:47;;;;;;;5.70;5.10;;;;;;;34.41;32.23;96561.19;5094825;28;20044;-66
2023/07/24 09:48:15;;;;;;;7.53;5.35;;;;;;;34.37;31.18;96568.09;5094821;28;20050;-66
2023/07/24 09:50:44;;;;;;;5.70;4.72;;;;;;;34.42;29.96;96562.84;5094730;28;20052;-66
2023/07/24 09:53:17;;;;;;;8.00;4.93;;;;;;;34.36;31.52;96555.56;5094661;28;20105;-67
2023/07/24 09:55:53;;;;;;;7.28;5.97;;;;;;;34.52;32.14;96555.13;5094942;28;20134;-67
2023/07/24 09:58:23;;;;;;;9.77;5.63;;;;;;;34.61;31.78;96547.56;5094470;28;20051;-67
2023/07/24 10:00:51;;;;;;;9.05;5.75;;;;;;;34.57;30.46;96540.91;5094460;28;20058;-66
2023/07/24 10:03:20;;;;;;;7.53;5.75;;;;;;;34.32;32.22;96536.16;5094333;28;20448;-67
2023/07/24 10:05:49;;;;;;;6.85;5.88;;;;;;;33.82;32.34;96536.53;5094418;28;20052;-66
2023/07/24 10:08:17;;;;;;;8.55;5.53;;;;;;;33.79;32.23;96529.66;5094453;28;20055;-66
2023/07/24 10:10:44;;;;;;;6.18;5.57;;;;;;;33.62;32.21;96527.34;5094539;28;20486;-66
2023/07/24 10:13:14;;;;;;;9.77;6.10;;;;;;;33.48;31.81;96523.75;5094269;28;20465;-66
2023/07/24 10:15:44;;;;;;;7.93;5.72;;;;;;;33.31;33.91;96523.28;5094373;28;20486;-67
2023/07/24 10:18:11;;;;;;;;;;;;;;;33.27;34.49;96517.47;5094500;28;20101;-67
2023/07/24 10:20:41;;;;;;;6.22;5.63;;;;;;;33.28;34.94;96515.56;5094100;28;19920;-66
2023/07/24 10:23:10;;;;;;;6.90;6.18;;;;;;;33.63;33.90;96511.91;5094247;28;20134;-66
2023/07/24 10:25:40;;;;;;;7.43;5.72;;;;;;;33.90;32.46;96512.78;5093962;28;20059;-66
2023/07/24 10:28:10;;;;;;;8.13;5.63;;;;;;;33.83;32.61;96508.41;5093892;28;20048;-66
2023/07/24 10:30:37;;;;;;;;;;;;;;;33.77;32.82;96516.31;5094510;28;20059;-66
2023/07/24 10:33:08;;;;;;;5.95;5.35;;;;;;;33.83;32.35;96511.09;5094018;28;20423;-66
2023/07/24 10:35:43;;;;;;;8.68;6.07;;;;;;;33.90;32.63;96509.22;5093811;28;20044;-66
2023/07/24 10:38:10;;;;;;;8.35;5.63;;;;;;;33.82;33.48;96504.00;5093795;28;20044;-66
2023/07/24 10:40:37;;;;;;;8.38;6.68;;;;;;;33.77;31.62;96505.47;5093739;28;20453;-66
2023/07/24 10:43:09;;;;;;;7.30;6.47;;;;;;;33.43;31.11;96499.13;5093801;28;20059;-66
2023/07/24 10:45:43;;;;;;;7.43;6.47;;;;;;;33.25;33.86;96494.31;5093709;28;20056;-66
2023/07/24 10:48:12;;;;;;;6.15;5.55;;;;;;;33.17;35.42;96491.78;5092864;28;20047;-66
2023/07/24 10:50:41;;;;;;;10.65;5.75;;;;;;;33.10;34.14;96492.59;5093422;28;20405;-66
2023/07/24 10:53:09;;;;;;;7.97;6.63;;;;;;;33.26;33.20;96488.69;5093480;28;20054;-66
2023/07/24 10:55:37;;;;;;;9.05;6.63;;;;;;;33.05;31.38;96480.72;5093571;28;20048;-66
2023/07/24 10:58:04;;;;;;;8.70;6.28;;;;;;;32.92;32.05;96474.16;5093357;28;20044;-66
2023/07/24 11:00:32;;;;;;;8.35;6.47;;;;;;;33.05;34.36;96478.00;5093478;28;20044;-66
2023/07/24 11:02:59;;;;;;;8.90;6.15;;;;;;;33.12;33.29;96465.31;5093256;28;20048;-66
2023/07/24 11:05:29;;;;;;;8.50;6.65;;;;;;;33.36;32.84;96468.50;5093340;28;20052;-66
2023/07/24 11:07:56;;;;;;;7.72;6.80;;;;;;;33.51;32.75;96469.16;5093538;28;20048;-66
2023/07/24 11:10:24;;;;;;;7.57;6.35;;;;;;;33.60;32.42;96460.84;5093227;28;20135;-66
2023/07/24 11:12:51;;;;;;;7.93;6.65;;;;;;;33.70;32.73;96460.41;5093389;28;20468;-66
2023/07/24 11:15:25;;;;;;;8.90;6.03;;;;;;;33.76;32.45;96467.72;5093358;28;20125;-66
2023/07/24 11:17:53;;;;;;;8.15;6.72;;;;;;;33.80;31.59;96458.16;5093203;28;20065;-67
2023/07/24 11:20:20;;;;;;;7.97;6.72;;;;;;;33.99;30.97;96459.16;5093450;28;20048;-66
2023/07/24 11:22:49;;;;;;;7.97;7.13;;;;;;;34.11;29.26;96453.94;5093355;28;20044;-66
2023/07/24 11:25:16;;;;;;;8.10;6.45;;;;;;;34.21;30.60;96445.38;5093503;28;20510;-66
2023/07/24 11:27:44;;;;;;;11.40;7.07;;;;;;;34.37;31.22;96437.84;5093171;28;20048;-67
2023/07/24 11:30:13;;;;;;;8.40;6.35;;;;;;;34.34;30.41;96436.38;5093123;28;20076;-66
2023/07/24 11:32:41;;;;;;;8.35;7.40;;;;;;;34.23;30.18;96440.59;5093293;28;20206;-66